Time;durP1;ratioP1;P1;durP2;ratioP2;P2;SDS_P1;SDS_P2;PMS_P1;PMS_P2;Temp;Humidity;BMP_temperature;BMP_pressure;BME280_temperature;BME280_humidity;BME280_pressure;Samples;Min_cycle;Max_cycle;Signal;HPM_P1;HPM_P2
2023/03/01 00:01:09;;;;;;;105.20;48.70;;;;;;;-1.50;76.73;102065.20;104070;1274;100719;-75
2023/03/01 00:03:54;;;;;;;113.20;48.50;;;;;;;-1.50;76.84;102061.54;103975;1279;99105;-74
2023/03/01 00:06:40;;;;;;;105.10;48.50;;;;;;;-1.53;76.66;102055.39;103769;1280;98449;-77
2023/03/01 00:09:25;;;;;;;97.40;46.00;;;;;;;-1.55;76.62;102053.38;103958;1279;98459;-76
2023/03/01 00:12:10;;;;;;;97.60;46.50;;;;;;;-1.55;76.86;102054.58;103991;1280;101396;-73
2023/03/01 00:14:55;;;;;;;99.70;49.00;;;;;;;-1.56;76.73;102056.02;103955;1279;99268;-74
2023/03/01 00:17:40;;;;;;;100.60;46.60;;;;;;;-1.57;76.88;102054.33;103916;1274;99109;-76
2023/03/01 00:20:25;;;;;;;99.30;48.30;;;;;;;-1.57;77.15;102048.57;104057;1280;99190;-75
2023/03/01 00:23:09;;;;;;;103.30;48.40;;;;;;;-1.59;77.38;102044.23;103892;1274;98550;-74
2023/03/01 00:25:54;;;;;;;106.10;51.80;;;;;;;-1.60;77.66;102043.43;103949;1274;101486;-76
2023/03/01 00:28:39;;;;;;;110.40;51.30;;;;;;;-1.59;77.83;102044.29;103868;1277;100329;-75
2023/03/01 00:31:28;;;;;;;111.10;49.50;;;;;;;-1.59;78.01;102047.40;104033;1280;99062;-74
2023/03/01 00:34:13;;;;;;;113.80;51.80;;;;;;;-1.58;78.06;102045.98;103994;1279;98112;-74
2023/03/01 00:37:04;;;;;;;108.70;50.10;;;;;;;-1.59;78.18;102045.33;103786;1280;97950;-77
2023/03/01 00:39:50;;;;;;;114.10;52.10;;;;;;;-1.61;78.40;102040.17;103999;1277;103054;-76
2023/03/01 00:42:34;;;;;;;102.50;49.50;;;;;;;-1.65;78.60;102034.39;103900;1276;99311;-77
2023/03/01 00:45:19;;;;;;;106.90;52.30;;;;;;;-1.68;78.86;102027.55;103935;1278;99167;-77
2023/03/01 00:48:05;;;;;;;102.80;48.90;;;;;;;-1.70;78.97;102023.26;103654;1280;98191;-76
2023/03/01 00:50:49;;;;;;;96.90;45.70;;;;;;;-1.71;79.17;102018.26;103789;1282;98566;-74
2023/03/01 00:53:35;;;;;;;89.50;44.10;;;;;;;-1.73;79.29;102015.02;103999;1276;101478;-74
2023/03/01 00:56:20;;;;;;;97.50;46.40;;;;;;;-1.73;79.52;102017.14;103995;1278;100498;-75
2023/03/01 00:59:05;;;;;;;95.00;44.60;;;;;;;-1.70;79.63;102020.65;103950;1280;97899;-76
2023/03/01 01:01:49;;;;;;;95.20;45.00;;;;;;;-1.67;79.61;102024.52;103933;1280;98029;-74
2023/03/01 01:04:34;;;;;;;103.70;45.80;;;;;;;-1.68;79.56;102028.27;103914;1277;99712;-74
2023/03/01 01:07:22;;;;;;;97.90;46.90;;;;;;;-1.71;79.51;102028.23;103842;1282;102109;-74
2023/03/01 01:10:07;;;;;;;104.80;45.40;;;;;;;-1.72;79.44;102023.20;103962;1280;100135;-77
2023/03/01 01:12:52;;;;;;;97.70;44.20;;;;;;;-1.71;79.43;102021.94;103933;1279;97924;-75
2023/03/01 01:15:37;;;;;;;103.00;47.90;;;;;;;-1.72;79.46;102016.38;103717;1277;98010;-76
2023/03/01 01:18:22;;;;;;;110.20;50.20;;;;;;;-1.71;79.56;102008.81;103914;1277;97987;-77
2023/03/01 01:21:10;;;;;;;117.80;52.20;;;;;;;-1.69;79.78;102001.17;103975;1280;101399;-77
2023/03/01 01:23:55;;;;;;;117.10;51.60;;;;;;;-1.70;79.89;101997.90;103924;1279;100442;-73
2023/03/01 01:26:40;;;;;;;111.30;55.90;;;;;;;-1.71;80.06;101996.37;103829;1280;98974;-77
2023/03/01 01:29:25;;;;;;;120.10;58.80;;;;;;;-1.71;80.16;101990.59;103540;1282;99181;-74
2023/03/01 01:32:10;;;;;;;119.60;55.80;;;;;;;-1.71;80.19;101984.63;104003;1278;98005;-75
2023/03/01 01:34:54;;;;;;;114.60;54.40;;;;;;;-1.72;80.22;101980.81;103791;1273;102173;-74
2023/03/01 01:37:40;;;;;;;110.30;50.60;;;;;;;-1.71;80.29;101977.44;103862;1279;100348;-76
2023/03/01 01:40:24;;;;;;;111.90;52.50;;;;;;;-1.71;80.27;101976.21;104031;1276;99078;-76
2023/03/01 01:43:19;;;;;;;109.10;48.70;;;;;;;-1.71;80.34;101971.84;103971;1274;97975;-77
2023/03/01 01:46:15;;;;;;;103.90;46.70;;;;;;;-1.72;80.50;101966.63;103658;1282;99687;-75
2023/03/01 01:49:03;;;;;;;107.00;50.80;;;;;;;-1.73;80.58;101966.51;103796;1277;102923;-74
2023/03/01 01:51:51;;;;;;;107.90;48.70;;;;;;;-1.73;80.68;101958.30;104057;1280;99294;-76
2023/03/01 01:54:57;;;;;;;113.60;50.30;;;;;;;-1.73;80.65;101955.84;103713;1283;98952;-74
2023/03/01 01:57:46;;;;;;;106.20;49.60;;;;;;;-1.72;80.63;101953.50;103743;1281;99163;-79
2023/03/01 02:00:30;;;;;;;112.30;51.90;;;;;;;-1.71;80.61;101952.21;104001;1279;99779;-76
2023/03/01 02:03:20;;;;;;;102.50;49.00;;;;;;;-1.69;80.68;101952.48;103746;1279;102576;-75
2023/03/01 02:06:28;;;;;;;117.10;50.70;;;;;;;-1.68;80.43;101958.91;103916;1274;100555;-75
2023/03/01 02:09:16;;;;;;;116.70;52.80;;;;;;;-1.68;80.37;101957.68;103929;1274;97942;-76
2023/03/01 02:12:02;;;;;;;112.80;50.10;;;;;;;-1.67;80.26;101957.11;103966;1280;99143;-75
2023/03/01 02:14:47;;;;;;;114.20;50.30;;;;;;;-1.66;80.35;101953.04;103975;1277;97989;-75
2023/03/01 02:17:33;;;;;;;118.90;53.40;;;;;;;-1.65;80.36;101953.52;103888;1280;102686;-75
2023/03/01 02:20:36;;;;;;;120.20;54.50;;;;;;;-1.65;80.45;101955.23;103910;1279;99374;-79
2023/03/01 02:23:22;;;;;;;97.80;49.50;;;;;;;-1.63;80.36;101957.43;103930;1279;98943;-76
2023/03/01 02:26:36;;;;;;;114.80;50.10;;;;;;;-1.63;80.41;101959.55;103939;1280;97992;-75
2023/03/01 02:29:26;;;;;;;112.80;52.10;;;;;;;-1.63;80.41;101957.08;103766;1279;99983;-74
2023/03/01 02:32:13;;;;;;;106.60;49.80;;;;;;;-1.64;80.28;101955.90;103881;1279;102074;-74
2023/03/01 02:34:58;;;;;;;116.60;52.40;;;;;;;-1.68;80.43;101952.61;103969;1280;99170;-76
2023/03/01 02:37:44;;;;;;;119.10;56.80;;;;;;;-1.71;80.50;101953.61;103613;1277;98123;-74
2023/03/01 02:40:33;;;;;;;115.90;52.50;;;;;;;-1.71;80.62;101955.02;103994;1274;97921;-74
2023/03/01 02:43:20;;;;;;;118.20;56.90;;;;;;;-1.71;80.71;101949.27;104022;1279;99667;-76
2023/03/01 02:46:18;;;;;;;121.20;56.60;;;;;;;-1.75;80.64;101946.63;103962;1280;101314;-75
2023/03/01 02:49:25;;;;;;;117.70;55.80;;;;;;;-1.78;80.79;101945.59;103818;1280;99113;-76
2023/03/01 02:52:29;;;;;;;126.80;54.10;;;;;;;-1.79;80.91;101941.75;103892;1279;97927;-75
2023/03/01 02:55:17;;;;;;;115.30;55.50;;;;;;;-1.77;80.98;101940.45;103940;1273;97888;-75
2023/03/01 02:58:03;;;;;;;114.30;51.30;;;;;;;-1.76;80.79;101942.52;103740;1281;98974;-77
2023/03/01 03:00:49;;;;;;;115.30;54.40;;;;;;;-1.75;80.72;101939.61;103914;1280;101384;-74
2023/03/01 03:03:34;;;;;;;115.20;53.50;;;;;;;-1.76;80.65;101940.04;103983;1287;99180;-74
2023/03/01 03:06:19;;;;;;;125.10;55.70;;;;;;;-1.77;80.56;101938.67;103764;1279;97906;-76
2023/03/01 03:09:04;;;;;;;108.70;54.50;;;;;;;-1.80;80.57;101930.98;103714;1280;98111;-74
2023/03/01 03:11:49;;;;;;;123.70;56.50;;;;;;;-1.83;80.77;101925.19;103801;1280;98446;-76
2023/03/01 03:14:34;;;;;;;118.90;58.10;;;;;;;-1.84;80.91;101923.30;103976;1276;101404;-75
2023/03/01 03:17:19;;;;;;;116.10;55.00;;;;;;;-1.87;81.00;101920.28;104019;1279;100421;-76
2023/03/01 03:20:10;;;;;;;124.50;56.50;;;;;;;-1.87;81.07;101920.48;103887;1278;97931;-76
2023/03/01 03:23:00;;;;;;;126.40;56.80;;;;;;;-1.88;81.29;101921.23;103763;1280;98691;-76
2023/03/01 03:25:48;;;;;;;119.50;53.20;;;;;;;-1.89;81.27;101915.35;104012;1279;98517;-75
2023/03/01 03:28:34;;;;;;;113.40;52.50;;;;;;;-1.93;81.30;101919.36;103816;1282;102607;-76
2023/03/01 03:31:19;;;;;;;105.50;50.30;;;;;;;-1.91;81.44;101915.60;104025;1279;99394;-74
2023/03/01 03:34:04;;;;;;;115.50;51.60;;;;;;;-1.90;81.41;101914.15;104068;1280;98024;-75
2023/03/01 03:36:56;;;;;;;113.30;51.80;;;;;;;-1.91;81.35;101907.36;103889;1288;98059;-74
2023/03/01 03:39:41;;;;;;;105.20;48.80;;;;;;;-1.92;81.33;101897.27;103738;1280;98545;-74
2023/03/01 03:42:26;;;;;;;114.70;49.50;;;;;;;-1.94;81.36;101884.41;103917;1279;101467;-75
2023/03/01 03:45:10;;;;;;;113.50;46.60;;;;;;;-1.96;81.16;101878.05;103911;1279;99203;-75
2023/03/01 03:47:55;;;;;;;107.30;47.70;;;;;;;-1.98;81.20;101876.23;103847;1280;99263;-76
2023/03/01 03:50:40;;;;;;;106.30;47.70;;;;;;;-1.98;81.29;101883.40;103878;1279;99197;-75
2023/03/01 03:53:28;;;;;;;111.00;49.30;;;;;;;-1.98;81.58;101891.27;103814;1280;98478;-76
2023/03/01 03:56:12;;;;;;;105.80;48.50;;;;;;;-1.98;81.56;101896.15;103870;1276;101512;-74
2023/03/01 03:58:57;;;;;;;98.20;47.80;;;;;;;-1.96;81.61;101888.90;103721;1283;100479;-75
2023/03/01 04:01:44;;;;;;;104.40;47.70;;;;;;;-1.97;81.61;101890.17;103936;1278;98738;-74
2023/03/01 04:04:29;;;;;;;114.00;49.70;;;;;;;-1.95;81.71;101890.92;103855;1279;98113;-74
2023/03/01 04:07:14;;;;;;;111.70;46.60;;;;;;;-1.91;81.69;101887.77;103904;1279;98545;-76
2023/03/01 04:09:58;;;;;;;103.80;46.80;;;;;;;-1.89;81.67;101883.98;103914;1279;102397;-75
2023/03/01 04:12:43;;;;;;;107.20;48.40;;;;;;;-1.87;81.64;101881.44;103921;1279;99160;-73
2023/03/01 04:15:27;;;;;;;108.10;48.10;;;;;;;-1.86;81.71;101882.60;103891;1279;98440;-75
2023/03/01 04:18:13;;;;;;;101.90;47.90;;;;;;;-1.85;81.83;101880.25;104002;1280;98048;-74
2023/03/01 04:20:58;;;;;;;98.20;45.60;;;;;;;-1.85;81.74;101878.36;104008;1278;98546;-74
2023/03/01 04:23:43;;;;;;;102.20;44.60;;;;;;;-1.85;81.87;101878.01;103948;1276;102694;-75
2023/03/01 04:26:28;;;;;;;99.90;47.20;;;;;;;-1.82;81.78;101882.60;103921;1279;99218;-75
2023/03/01 04:29:12;;;;;;;95.40;44.80;;;;;;;-1.83;81.60;101885.77;104023;1280;98010;-77
2023/03/01 04:31:57;;;;;;;101.50;46.50;;;;;;;-1.88;81.54;101892.70;103995;1280;98110;-77
2023/03/01 04:34:42;;;;;;;102.30;48.50;;;;;;;-1.93;81.67;101893.48;103899;1287;99633;-74
2023/03/01 04:37:27;;;;;;;101.40;47.00;;;;;;;-1.95;81.84;101895.50;103908;1277;102309;-75
2023/03/01 04:40:16;;;;;;;109.00;48.30;;;;;;;-1.94;81.98;101888.95;104005;1279;99295;-75
2023/03/01 04:43:01;;;;;;;102.60;46.80;;;;;;;-1.93;82.05;101881.20;103932;1290;98052;-76
2023/03/01 04:45:47;;;;;;;100.90;47.70;;;;;;;-1.93;82.19;101879.27;103961;1287;98032;-73
2023/03/01 04:48:32;;;;;;;96.10;46.70;;;;;;;-1.91;82.28;101879.55;104004;1279;97799;-76
2023/03/01 04:51:18;;;;;;;99.30;49.90;;;;;;;-1.90;82.29;101874.59;104031;1279;101432;-75
2023/03/01 04:54:03;;;;;;;95.40;45.60;;;;;;;-1.90;82.38;101873.19;104001;1278;99368;-76
2023/03/01 04:56:47;;;;;;;93.50;45.00;;;;;;;-1.89;82.28;101871.91;104169;1276;99101;-76
2023/03/01 04:59:32;;;;;;;102.70;49.60;;;;;;;-1.89;82.37;101868.91;104204;1281;98081;-76
2023/03/01 05:02:17;;;;;;;89.70;44.00;;;;;;;-1.91;82.31;101861.12;103887;1277;98534;-75
2023/03/01 05:05:03;;;;;;;79.50;40.00;;;;;;;-1.92;82.37;101855.08;103890;1280;102181;-76
2023/03/01 05:07:48;;;;;;;79.20;41.10;;;;;;;-1.93;82.51;101852.52;104011;1277;100412;-75
2023/03/01 05:10:35;;;;;;;89.10;42.80;;;;;;;-1.96;82.53;101845.81;103953;1288;99506;-75
2023/03/01 05:13:21;;;;;;;85.50;38.20;;;;;;;-1.96;82.74;101843.37;103769;1277;98029;-74
2023/03/01 05:16:10;;;;;;;80.10;39.50;;;;;;;-1.95;82.90;101841.95;103967;1279;99086;-75
2023/03/01 05:18:56;;;;;;;90.40;41.30;;;;;;;-1.94;82.93;101844.88;103886;1279;102619;-74
2023/03/01 05:24:48;;;;;;;84.20;39.40;;;;;;;-1.91;82.89;101846.61;103855;1280;98952;-76
2023/03/01 05:27:34;;;;;;;84.30;40.60;;;;;;;-1.90;82.88;101856.01;103980;1279;97947;-77
2023/03/01 05:30:18;;;;;;;72.20;36.40;;;;;;;-1.89;82.83;101858.79;103924;1281;97910;-76
2023/03/01 05:33:03;;;;;;;76.30;35.60;;;;;;;-1.90;82.89;101864.40;103944;1280;101302;-75
2023/03/01 05:35:49;;;;;;;81.00;37.10;;;;;;;-1.89;82.85;101857.39;103891;1276;99189;-74
2023/03/01 05:38:34;;;;;;;75.50;39.20;;;;;;;-1.90;82.91;101858.10;103935;1280;98078;-75
2023/03/01 05:41:18;;;;;;;79.80;39.30;;;;;;;-1.89;83.00;101866.48;103932;1279;98041;-76
2023/03/01 05:44:06;;;;;;;78.40;38.40;;;;;;;-1.88;83.11;101871.00;103914;1279;98439;-74
2023/03/01 05:46:51;;;;;;;80.30;37.60;;;;;;;-1.87;83.17;101877.21;103934;1276;101440;-76
2023/03/01 05:49:36;;;;;;;77.90;39.20;;;;;;;-1.86;82.96;101880.48;103832;1280;100388;-75
2023/03/01 05:52:20;;;;;;;71.10;35.10;;;;;;;-1.86;83.04;101884.33;103956;1288;99596;-75
2023/03/01 05:55:06;;;;;;;77.80;35.90;;;;;;;-1.85;83.12;101887.13;103984;1277;98004;-77
2023/03/01 05:57:51;;;;;;;81.00;38.80;;;;;;;-1.82;83.26;101888.02;103989;1279;98526;-77
2023/03/01 06:00:35;;;;;;;82.20;37.90;;;;;;;-1.79;83.16;101890.84;104056;1279;101828;-74
2023/03/01 06:03:20;;;;;;;76.60;39.20;;;;;;;-1.77;83.19;101892.81;103949;1280;99763;-75
2023/03/01 06:06:05;;;;;;;90.20;42.40;;;;;;;-1.74;83.24;101890.06;103953;1279;98506;-76
2023/03/01 06:08:51;;;;;;;94.50;41.00;;;;;;;-1.73;83.19;101889.30;103910;1279;99264;-74
2023/03/01 06:11:36;;;;;;;82.80;39.20;;;;;;;-1.69;83.30;101891.55;103888;1279;98462;-76
2023/03/01 06:14:20;;;;;;;82.10;39.60;;;;;;;-1.66;83.29;101889.64;103900;1276;103353;-75
2023/03/01 06:17:05;;;;;;;82.00;40.70;;;;;;;-1.65;83.47;101893.07;103959;1279;99188;-76
2023/03/01 06:19:50;;;;;;;86.00;42.70;;;;;;;-1.61;83.63;101890.75;103963;1281;98598;-76
2023/03/01 06:22:35;;;;;;;105.50;50.90;;;;;;;-1.59;83.65;101890.48;103940;1280;99253;-76
2023/03/01 06:25:24;;;;;;;85.90;41.90;;;;;;;-1.56;83.67;101890.70;103951;1277;99730;-75
2023/03/01 06:28:08;;;;;;;78.20;40.20;;;;;;;-1.54;83.50;101886.21;104313;1276;101340;-74
2023/03/01 06:30:53;;;;;;;81.50;40.20;;;;;;;-1.53;83.55;101883.37;103952;1278;99205;-74
2023/03/01 06:33:38;;;;;;;83.70;41.50;;;;;;;-1.51;83.73;101880.12;103993;1274;99119;-75
2023/03/01 06:36:23;;;;;;;89.10;43.50;;;;;;;-1.48;83.72;101879.98;103760;1276;98504;-73
2023/03/01 06:39:07;;;;;;;83.10;42.00;;;;;;;-1.45;83.93;101879.60;103934;1288;99687;-75
2023/03/01 06:41:52;;;;;;;84.10;40.30;;;;;;;-1.41;83.95;101880.51;103894;1277;101515;-75
2023/03/01 06:44:37;;;;;;;80.20;42.50;;;;;;;-1.40;83.97;101880.92;103896;1280;99229;-81
2023/03/01 06:47:22;;;;;;;82.20;41.10;;;;;;;-1.36;83.95;101885.66;103864;1279;98435;-75
2023/03/01 06:50:07;;;;;;;89.10;43.10;;;;;;;-1.34;84.00;101891.29;103946;1279;97995;-77
2023/03/01 06:52:56;;;;;;;83.10;39.80;;;;;;;-1.30;84.11;101890.40;103993;1276;98518;-77
2023/03/01 06:55:41;;;;;;;76.30;39.10;;;;;;;-1.28;84.06;101887.86;103944;1276;102685;-76
2023/03/01 06:58:26;;;;;;;82.30;38.00;;;;;;;-1.25;84.15;101887.31;103806;1279;99130;-75
2023/03/01 07:01:11;;;;;;;90.90;42.30;;;;;;;-1.22;84.03;101885.41;103972;1279;99057;-76
2023/03/01 07:03:55;;;;;;;88.60;41.50;;;;;;;-1.20;84.09;101883.21;103992;1276;98012;-74
2023/03/01 07:06:40;;;;;;;87.60;45.60;;;;;;;-1.19;84.16;101886.45;103838;1274;98528;-77
2023/03/01 07:09:25;;;;;;;88.50;45.30;;;;;;;-1.16;84.26;101887.18;103923;1277;103396;-76
2023/03/01 07:12:16;;;;;;;96.40;48.10;;;;;;;-1.11;84.41;101881.86;104409;1275;99134;-88
2023/03/01 07:15:04;;;;;;;83.30;42.90;;;;;;;-1.07;84.23;101880.05;104437;1274;99803;-79
2023/03/01 07:17:50;;;;;;;82.00;41.60;;;;;;;-1.02;84.37;101883.29;104638;1274;97923;-84
2023/03/01 07:20:35;;;;;;;70.50;36.30;;;;;;;-0.96;84.48;101881.39;104955;1277;98468;-83
2023/03/01 07:23:20;;;;;;;86.90;40.50;;;;;;;-0.90;84.54;101884.02;105206;1274;102689;-85
2023/03/01 07:26:06;;;;;;;78.20;39.10;;;;;;;-0.82;84.54;101883.40;104378;1274;100081;-77
2023/03/01 07:28:51;;;;;;;80.50;38.60;;;;;;;-0.73;84.43;101879.45;105635;1274;99197;-80
2023/03/01 07:31:36;;;;;;;86.50;38.50;;;;;;;-0.67;84.21;101877.02;105102;1279;96650;-84
2023/03/01 07:34:22;;;;;;;75.00;37.70;;;;;;;-0.62;84.25;101877.26;105098;1274;98430;-85
2023/03/01 07:37:08;;;;;;;71.20;36.10;;;;;;;-0.56;84.29;101867.08;104868;1278;102697;-83
2023/03/01 07:39:53;;;;;;;79.20;39.20;;;;;;;-0.49;84.42;101864.92;104830;1282;99409;-82
2023/03/01 07:42:38;;;;;;;71.00;37.00;;;;;;;-0.40;84.48;101860.89;104860;1282;98974;-77
2023/03/01 07:45:23;;;;;;;76.50;37.20;;;;;;;-0.30;84.68;101858.94;104207;1276;98011;-78
2023/03/01 07:48:07;;;;;;;79.40;39.20;;;;;;;-0.21;84.63;101860.16;104291;1279;98574;-77
2023/03/01 07:50:52;;;;;;;103.90;48.30;;;;;;;-0.12;84.65;101868.90;104320;1287;101439;-77
2023/03/01 07:53:37;;;;;;;92.70;44.60;;;;;;;-0.01;84.58;101868.85;104325;1288;99301;-77
2023/03/01 07:56:22;;;;;;;77.30;41.20;;;;;;;0.06;84.25;101862.48;104012;1280;98261;-76
2023/03/01 07:59:07;;;;;;;80.70;46.20;;;;;;;0.12;84.25;101858.22;104188;1279;97992;-80
2023/03/01 08:01:52;;;;;;;72.30;41.90;;;;;;;0.20;84.23;101861.96;104301;1277;98451;-76
2023/03/01 08:04:36;;;;;;;64.70;32.30;;;;;;;0.28;84.26;101866.73;104550;1276;101469;-82
2023/03/01 08:07:21;;;;;;;60.50;30.70;;;;;;;0.38;84.37;101869.33;105147;1277;99898;-80
2023/03/01 08:10:07;;;;;;;59.40;32.00;;;;;;;0.48;84.19;101867.45;105498;1277;98849;-84
2023/03/01 08:12:52;;;;;;;59.20;28.70;;;;;;;0.58;84.08;101866.34;104728;1279;98016;-82
2023/03/01 08:15:37;;;;;;;58.10;29.20;;;;;;;0.68;83.82;101864.17;104861;1279;98471;-82
2023/03/01 08:18:22;;;;;;;53.20;28.10;;;;;;;0.77;83.70;101861.67;104872;1277;101478;-84
2023/03/01 08:21:10;;;;;;;57.10;27.90;;;;;;;0.87;83.36;101861.05;104922;1274;100618;-78
2023/03/01 08:23:55;;;;;;;51.70;27.10;;;;;;;0.97;83.07;101853.59;104925;1276;99305;-76
2023/03/01 08:26:39;;;;;;;56.40;28.60;;;;;;;1.06;83.27;101847.38;104289;1276;98122;-78
2023/03/01 08:29:24;;;;;;;49.20;25.90;;;;;;;1.18;83.05;101847.83;104146;1276;98462;-78
2023/03/01 08:32:09;;;;;;;52.90;27.00;;;;;;;1.28;82.56;101849.68;104219;1274;101467;-81
2023/03/01 08:34:54;;;;;;;50.50;26.00;;;;;;;1.37;82.59;101846.95;104154;1274;100939;-78
2023/03/01 08:37:39;;;;;;;50.60;27.50;;;;;;;1.48;82.31;101845.70;104298;1281;98116;-79
2023/03/01 08:40:23;;;;;;;42.50;23.30;;;;;;;1.59;82.26;101843.81;104294;1279;97886;-79
2023/03/01 08:43:08;;;;;;;39.10;20.40;;;;;;;1.70;82.35;101842.87;104406;1276;98106;-78
2023/03/01 08:45:52;;;;;;;39.70;19.20;;;;;;;1.83;81.63;101843.63;104078;1277;101342;-78
2023/03/01 08:48:38;;;;;;;40.10;19.90;;;;;;;1.92;80.90;101842.11;104138;1276;100734;-81
2023/03/01 08:51:24;;;;;;;39.50;19.80;;;;;;;2.01;80.56;101839.41;104436;1276;98036;-79
2023/03/01 08:54:13;;;;;;;37.30;18.60;;;;;;;2.12;80.61;101845.17;104300;1277;97911;-79
2023/03/01 08:56:58;;;;;;;40.00;19.90;;;;;;;2.21;79.90;101844.23;104125;1290;98478;-77
2023/03/01 08:59:43;;;;;;;38.50;18.30;;;;;;;2.29;79.91;101852.08;104471;1279;102267;-82
2023/03/01 09:02:28;;;;;;;40.20;19.10;;;;;;;2.46;80.45;101852.92;104476;1279;99167;-77
2023/03/01 09:05:13;;;;;;;33.50;18.70;;;;;;;2.59;80.25;101858.84;104092;1276;98060;-77
2023/03/01 09:07:58;;;;;;;29.90;17.20;;;;;;;2.74;80.27;101861.17;104472;1280;98136;-78
2023/03/01 09:10:43;;;;;;;33.80;18.90;;;;;;;2.81;79.57;101859.58;104132;1282;98447;-78
2023/03/01 09:13:30;;;;;;;32.30;19.20;;;;;;;2.95;80.57;101864.41;104446;1277;102257;-80
2023/03/01 09:16:19;;;;;;;33.00;17.10;;;;;;;3.16;80.67;101862.76;104203;1279;99069;-78
2023/03/01 09:19:04;;;;;;;29.90;17.60;;;;;;;3.34;79.75;101861.48;104516;1279;99138;-78
2023/03/01 09:21:52;;;;;;;31.40;17.50;;;;;;;3.44;79.44;101860.58;104496;1282;97997;-78
2023/03/01 09:24:36;;;;;;;31.40;17.90;;;;;;;3.57;79.24;101862.61;104414;1277;98450;-78
2023/03/01 09:27:21;;;;;;;32.90;17.30;;;;;;;3.68;78.52;101856.86;104368;1278;101577;-78
2023/03/01 09:30:09;;;;;;;29.80;16.50;;;;;;;3.77;78.67;101856.16;104532;1279;99701;-79
2023/03/01 09:32:55;;;;;;;29.90;16.50;;;;;;;3.93;78.83;101853.58;104522;1280;99124;-80
2023/03/01 09:35:46;;;;;;;31.20;17.40;;;;;;;4.05;77.87;101852.84;104556;1276;98067;-78
2023/03/01 09:38:31;;;;;;;32.40;19.00;;;;;;;4.10;76.98;101850.33;104385;1279;98109;-79
2023/03/01 09:41:31;;;;;;;48.60;24.60;;;;;;;4.06;76.35;101845.86;104408;1278;102356;-78
2023/03/01 09:44:38;;;;;;;73.50;42.80;;;;;;;4.02;76.13;101844.64;104561;1274;101254;-78
2023/03/01 09:47:30;;;;;;;69.50;43.10;;;;;;;3.98;75.95;101844.05;104408;1279;99260;-79
2023/03/01 09:50:20;;;;;;;56.60;36.80;;;;;;;3.94;75.82;101843.42;104066;1277;97954;-79
2023/03/01 09:53:15;;;;;;;35.50;23.10;;;;;;;3.91;75.87;101841.19;104432;1277;98103;-78
2023/03/01 09:56:30;;;;;;;30.20;18.10;;;;;;;3.90;76.11;101835.40;104083;1282;102607;-77
2023/03/01 09:59:26;;;;;;;31.50;18.40;;;;;;;3.90;75.95;101830.46;104087;1277;99236;-81
2023/03/01 10:02:35;;;;;;;34.90;19.90;;;;;;;3.93;76.09;101831.85;104382;1279;99243;-78
2023/03/01 10:05:57;;;;;;;34.90;20.50;;;;;;;3.96;76.15;101828.66;104344;1288;99339;-77
2023/03/01 10:08:55;;;;;;;31.20;17.10;;;;;;;4.03;76.37;101820.68;104322;1274;99860;-80
2023/03/01 10:11:47;;;;;;;33.20;18.00;;;;;;;4.08;76.11;101817.30;104344;1274;104404;-79
2023/03/01 10:14:52;;;;;;;35.60;17.90;;;;;;;4.11;75.82;101817.03;104396;1276;100414;-77
2023/03/01 10:17:41;;;;;;;41.00;20.00;;;;;;;4.16;75.91;101812.10;104244;1274;99361;-76
2023/03/01 10:20:38;;;;;;;35.50;18.80;;;;;;;4.20;75.91;101805.19;104278;1276;101181;-79
2023/03/01 10:23:27;;;;;;;152.70;56.20;;;;;;;4.26;75.57;101800.36;104410;1276;99727;-79
2023/03/01 10:26:27;;;;;;;94.10;40.10;;;;;;;4.31;75.57;101790.21;104217;1279;102745;-79
2023/03/01 10:29:13;;;;;;;178.40;66.50;;;;;;;4.37;75.50;101783.73;104289;1278;100633;-78
2023/03/01 10:31:58;;;;;;;88.50;37.20;;;;;;;4.41;75.33;101781.65;104321;1274;99485;-78
2023/03/01 10:34:43;;;;;;;72.90;32.40;;;;;;;4.46;75.24;101788.17;104232;1274;99334;-77
2023/03/01 10:37:28;;;;;;;92.90;40.00;;;;;;;4.49;75.17;101781.20;104387;1274;100072;-79
2023/03/01 10:40:13;;;;;;;77.30;34.90;;;;;;;4.53;75.05;101779.98;104305;1273;102748;-76
2023/03/01 10:43:01;;;;;;;105.40;45.20;;;;;;;4.56;74.83;101784.20;104437;1279;99798;-79
2023/03/01 10:45:47;;;;;;;54.20;28.00;;;;;;;4.60;75.19;101777.45;104408;1273;99778;-79
2023/03/01 10:48:31;;;;;;;36.10;21.10;;;;;;;4.67;75.28;101777.11;104004;1274;99332;-78
2023/03/01 10:51:20;;;;;;;30.00;17.30;;;;;;;4.73;75.21;101778.45;103845;1274;101268;-77
2023/03/01 10:54:14;;;;;;;30.80;16.70;;;;;;;4.79;75.32;101776.02;104084;1273;102778;-78
2023/03/01 10:57:02;;;;;;;31.70;16.90;;;;;;;4.83;74.71;101771.09;104391;1278;99465;-79
2023/03/01 11:00:01;;;;;;;38.20;19.80;;;;;;;4.87;74.72;101766.54;104390;1274;99412;-78
2023/03/01 11:03:10;;;;;;;30.90;17.80;;;;;;;4.91;74.64;101762.48;104277;1279;99943;-77
2023/03/01 11:06:05;;;;;;;37.00;17.80;;;;;;;4.97;74.87;101762.84;104388;1274;99796;-80
2023/03/01 11:08:50;;;;;;;34.10;17.60;;;;;;;5.02;74.90;101760.64;103981;1277;103988;-77
2023/03/01 11:11:36;;;;;;;31.90;16.80;;;;;;;5.06;74.63;101761.91;104376;1274;99419;-78
2023/03/01 11:14:33;;;;;;;36.70;18.50;;;;;;;5.09;74.48;101757.94;104279;1276;99451;-77
2023/03/01 11:17:28;;;;;;;41.30;20.70;;;;;;;5.12;74.33;101754.58;104275;1279;99368;-78
2023/03/01 11:20:13;;;;;;;33.20;17.50;;;;;;;5.14;74.07;101751.39;104124;1274;99845;-78
2023/03/01 11:23:05;;;;;;;30.40;16.90;;;;;;;5.15;73.70;101750.58;104384;1274;104169;-78
2023/03/01 11:26:00;;;;;;;35.70;18.70;;;;;;;5.18;74.13;101752.95;104375;1279;99456;-78
2023/03/01 11:28:51;;;;;;;33.90;18.20;;;;;;;5.24;74.27;101754.25;104394;1279;100717;-78
2023/03/01 11:31:37;;;;;;;36.10;19.20;;;;;;;5.30;74.27;101748.63;104384;1274;99278;-78
2023/03/01 11:34:40;;;;;;;63.30;29.30;;;;;;;5.37;74.47;101739.75;104160;1274;99773;-79
2023/03/01 11:37:44;;;;;;;63.60;33.50;;;;;;;5.44;74.20;101736.45;104437;1286;103638;-80
2023/03/01 11:40:41;;;;;;;57.30;31.60;;;;;;;5.48;73.82;101726.40;104451;1274;99366;-77
2023/03/01 11:43:40;;;;;;;35.50;20.70;;;;;;;5.53;74.02;101724.28;104376;1277;99409;-79
2023/03/01 11:46:31;;;;;;;34.30;19.00;;;;;;;5.61;74.22;101723.54;104232;1279;99354;-77
2023/03/01 11:49:44;;;;;;;36.20;18.90;;;;;;;5.70;74.18;101725.63;104358;1276;99368;-78
2023/03/01 11:52:57;;;;;;;32.40;19.00;;;;;;;5.73;73.71;101728.20;104346;1277;102763;-79
2023/03/01 11:55:51;;;;;;;43.80;23.90;;;;;;;5.77;73.93;101727.21;104019;1279;99441;-78
2023/03/01 11:59:04;;;;;;;45.60;25.40;;;;;;;5.81;73.58;101726.48;104399;1274;99465;-76
2023/03/01 12:02:14;;;;;;;35.30;20.00;;;;;;;5.87;73.65;101726.85;104353;1278;99357;-78
2023/03/01 12:05:09;;;;;;;30.40;17.50;;;;;;;5.92;73.53;101726.98;104320;1278;99876;-76
2023/03/01 12:08:01;;;;;;;29.30;17.80;;;;;;;5.95;73.28;101723.68;104310;1274;102792;-79
2023/03/01 12:11:17;;;;;;;34.20;17.00;;;;;;;6.00;73.21;101726.66;104369;1274;100097;-77
2023/03/01 12:14:12;;;;;;;30.70;18.40;;;;;;;6.05;73.27;101724.80;104817;1278;99949;-79
2023/03/01 12:17:16;;;;;;;26.90;16.00;;;;;;;6.08;72.81;101728.40;104366;1274;99477;-79
2023/03/01 12:20:22;;;;;;;24.50;14.60;;;;;;;6.09;72.71;101724.25;104429;1279;99358;-78
2023/03/01 12:23:36;;;;;;;26.80;14.60;;;;;;;6.14;72.74;101725.09;104376;1274;102793;-78
2023/03/01 12:26:33;;;;;;;27.80;14.90;;;;;;;6.20;73.05;101723.45;104324;1274;100421;-81
2023/03/01 12:29:24;;;;;;;25.90;15.70;;;;;;;6.25;72.68;101728.55;104382;1278;100133;-77
2023/03/01 12:32:23;;;;;;;26.30;15.20;;;;;;;6.28;72.52;101726.48;104352;1277;99466;-79
2023/03/01 12:35:29;;;;;;;36.40;18.00;;;;;;;6.31;72.50;101722.54;104351;1279;99343;-80
2023/03/01 12:38:37;;;;;;;23.50;13.60;;;;;;;6.37;72.63;101719.05;104336;1279;104093;-77